createdAt,value
2022-08-19T00:01:52.874Z,7.15
2022-08-19T00:04:27.827Z,14.73
2022-08-19T00:06:56.186Z,11.02
2022-08-19T00:09:24.809Z,7.72
2022-08-19T00:11:52.848Z,12.30
2022-08-19T00:14:21.666Z,7.53
2022-08-19T00:16:50.196Z,11.52
2022-08-19T00:19:17.766Z,8.32
2022-08-19T00:21:45.286Z,11.57
2022-08-19T00:24:14.335Z,9.90
2022-08-19T00:26:43.354Z,9.00
2022-08-19T00:29:13.244Z,9.35
2022-08-19T00:31:42.844Z,7.10
2022-08-19T00:34:10.668Z,9.27
2022-08-19T00:36:38.627Z,7.35
2022-08-19T00:39:06.025Z,6.00
2022-08-19T00:41:33.542Z,11.52
2022-08-19T00:44:17.071Z,15.27
2022-08-19T00:46:52.528Z,10.02
2022-08-19T00:49:41.836Z,13.57
2022-08-19T00:52:14.550Z,7.85
2022-08-19T00:54:44.104Z,5.63
2022-08-19T00:57:16.172Z,8.30
2022-08-19T01:00:00.623Z,9.77
2022-08-19T01:02:33.336Z,7.82
2022-08-19T01:05:03.910Z,5.82
2022-08-19T01:07:37.628Z,9.10
2022-08-19T01:10:09.803Z,5.13
2022-08-19T01:12:39.021Z,7.10
2022-08-19T01:15:13.357Z,8.10
2022-08-19T01:17:43.040Z,6.22
2022-08-19T01:20:18.085Z,13.80
2022-08-19T01:22:52.035Z,6.07
2022-08-19T01:25:23.081Z,8.07
2022-08-19T01:27:53.611Z,5.22
2022-08-19T01:30:25.246Z,6.53
2022-08-19T01:32:54.250Z,6.07
2022-08-19T01:35:24.547Z,7.30
2022-08-19T01:37:55.662Z,8.07
2022-08-19T01:40:26.203Z,4.43
2022-08-19T01:42:54.714Z,6.25
2022-08-19T01:45:24.586Z,8.77
2022-08-19T01:48:02.368Z,12.82
2022-08-19T01:50:32.330Z,7.03
2022-08-19T01:53:06.272Z,6.15
2022-08-19T01:55:40.953Z,6.18
2022-08-19T01:58:22.080Z,9.18
2022-08-19T02:00:49.901Z,12.50
2022-08-19T02:03:17.752Z,6.05
2022-08-19T02:05:45.558Z,7.78
2022-08-19T02:08:13.502Z,9.18
2022-08-19T02:10:44.448Z,9.18
2022-08-19T02:13:14.447Z,8.02
2022-08-19T02:16:01.697Z,6.65
2022-08-19T02:18:31.758Z,5.32
2022-08-19T02:20:58.981Z,7.88
2022-08-19T02:23:26.211Z,7.78
2022-08-19T02:25:53.424Z,7.15
2022-08-19T02:28:20.981Z,5.47
2022-08-19T02:30:48.800Z,7.88
2022-08-19T02:33:16.799Z,9.73
2022-08-19T02:35:45.621Z,11.07
2022-08-19T02:38:28.316Z,8.77
2022-08-19T02:40:58.732Z,9.00
2022-08-19T02:43:28.561Z,7.80
2022-08-19T02:45:56.581Z,6.22
2022-08-19T02:48:26.135Z,8.80
2022-08-19T02:50:57.597Z,6.90
2022-08-19T02:53:27.595Z,9.35
2022-08-19T02:55:55.021Z,14.75
2022-08-19T02:58:25.116Z,14.75
2022-08-19T03:00:55.279Z,9.73
2022-08-19T03:03:22.635Z,12.15
2022-08-19T03:05:56.927Z,9.88
2022-08-19T03:08:26.657Z,13.90
2022-08-19T03:10:54.487Z,8.50
2022-08-19T03:13:24.362Z,6.72
2022-08-19T03:15:51.566Z,11.18
2022-08-19T03:18:18.887Z,9.45
2022-08-19T03:20:50.480Z,9.13
2022-08-19T03:23:18.105Z,10.30
2022-08-19T03:26:02.776Z,8.55
2022-08-19T03:28:35.822Z,11.27
2022-08-19T03:31:43.900Z,8.57
2022-08-19T03:33:56.155Z,9.85
2022-08-19T03:36:26.999Z,9.05
2022-08-19T03:41:43.272Z,9.20
2022-08-19T03:44:22.792Z,15.50
2022-08-19T03:46:52.864Z,11.55
2022-08-19T03:49:21.285Z,14.90
2022-08-19T03:51:55.838Z,12.60
2022-08-19T03:54:26.062Z,20.50
2022-08-19T03:56:55.030Z,11.35
2022-08-19T03:59:26.999Z,8.45
2022-08-19T04:01:58.749Z,9.50
2022-08-19T04:04:29.008Z,6.90
2022-08-19T04:06:57.876Z,9.88
2022-08-19T04:09:25.203Z,13.63
2022-08-19T04:11:57.174Z,10.25
2022-08-19T04:14:27.887Z,10.02
2022-08-19T04:16:55.034Z,10.00
2022-08-19T04:19:22.255Z,10.18
2022-08-19T04:21:51.380Z,12.57
2022-08-19T04:24:19.814Z,13.00
2022-08-19T04:26:48.028Z,7.80
2022-08-19T04:29:26.058Z,7.28
2022-08-19T04:31:55.961Z,8.52
2022-08-19T04:34:25.305Z,10.27
2022-08-19T04:36:54.035Z,7.00
2022-08-19T04:39:49.063Z,8.85
2022-08-19T04:42:37.080Z,12.38
2022-08-19T04:45:13.996Z,9.23
2022-08-19T04:47:47.592Z,13.27
2022-08-19T04:50:28.341Z,11.18
2022-08-19T04:52:57.034Z,12.65
2022-08-19T04:55:26.797Z,8.93
2022-08-19T04:57:55.772Z,13.15
2022-08-19T05:00:23.667Z,8.57
2022-08-19T05:02:50.928Z,7.22
2022-08-19T05:05:18.543Z,11.27
2022-08-19T05:07:45.708Z,7.93
2022-08-19T05:10:13.871Z,6.90
2022-08-19T05:12:41.179Z,13.15
2022-08-19T05:15:12.213Z,8.07
2022-08-19T05:17:59.480Z,7.95
2022-08-19T05:20:45.543Z,9.45
2022-08-19T05:23:21.915Z,11.38
2022-08-19T05:25:51.498Z,12.70
2022-08-19T05:28:19.922Z,9.88
2022-08-19T05:30:47.796Z,10.20
2022-08-19T05:33:15.342Z,11.98
2022-08-19T05:35:42.625Z,10.52
2022-08-19T05:38:09.943Z,13.98
2022-08-19T05:40:37.234Z,14.55
2022-08-19T05:43:08.454Z,9.18
2022-08-19T05:45:40.716Z,8.38
2022-08-19T05:50:37.013Z,9.40
2022-08-19T05:53:04.368Z,14.45
2022-08-19T05:55:31.924Z,9.57
2022-08-19T05:57:59.254Z,12.13
2022-08-19T06:00:26.536Z,17.88
2022-08-19T06:03:11.737Z,10.77
2022-08-19T06:05:46.167Z,14.68
2022-08-19T06:08:19.722Z,12.07
2022-08-19T06:10:47.072Z,7.35
2022-08-19T06:13:14.324Z,8.95
2022-08-19T06:15:45.001Z,10.32
2022-08-19T06:18:12.779Z,14.80
2022-08-19T06:20:55.613Z,11.02
2022-08-19T06:23:24.393Z,15.88
2022-08-19T06:25:51.902Z,11.00
2022-08-19T06:28:19.293Z,8.38
2022-08-19T06:30:46.597Z,10.70
2022-08-19T06:33:16.975Z,11.80
2022-08-19T06:38:17.958Z,6.82
2022-08-19T06:40:47.046Z,10.40
2022-08-19T06:43:16.926Z,11.43
2022-08-19T06:45:49.244Z,11.98
2022-08-19T06:48:18.286Z,10.65
2022-08-19T06:50:58.273Z,9.85
2022-08-19T06:53:29.297Z,13.13
2022-08-19T06:56:03.267Z,7.32
2022-08-19T06:58:33.263Z,16.02
2022-08-19T07:01:05.756Z,9.55
2022-08-19T07:03:37.882Z,11.52
2022-08-19T07:06:41.090Z,8.93
2022-08-19T07:09:01.529Z,15.60
2022-08-19T07:11:29.211Z,9.95
2022-08-19T07:13:56.933Z,11.38
2022-08-19T07:16:28.906Z,9.98
2022-08-19T07:18:57.764Z,7.50
2022-08-19T07:21:29.491Z,9.63
2022-08-19T07:23:58.233Z,8.88
2022-08-19T07:26:29.252Z,12.23
2022-08-19T07:28:58.657Z,13.55
2022-08-19T07:31:28.456Z,18.25
2022-08-19T07:33:58.593Z,12.30
2022-08-19T07:36:33.320Z,8.90
2022-08-19T07:39:04.104Z,7.57
2022-08-19T07:41:32.519Z,10.35
2022-08-19T07:44:04.814Z,7.68
2022-08-19T07:48:59.990Z,10.00
2022-08-19T07:51:35.961Z,9.00
2022-08-19T07:54:05.005Z,7.55
2022-08-19T07:56:32.254Z,5.60
2022-08-19T07:58:59.488Z,8.45
2022-08-19T08:01:28.936Z,10.40
2022-08-19T08:04:16.725Z,8.88
2022-08-19T08:07:02.971Z,8.15
2022-08-19T08:09:34.903Z,12.13
2022-08-19T08:12:32.936Z,10.23
2022-08-19T08:15:08.363Z,7.97
2022-08-19T08:17:49.241Z,6.25
2022-08-19T08:20:20.054Z,11.18
2022-08-19T08:23:07.280Z,13.82
2022-08-19T08:25:36.761Z,4.90
2022-08-19T08:28:05.237Z,6.85
2022-08-19T08:30:34.343Z,5.25
2022-08-19T08:33:02.590Z,6.65
2022-08-19T08:35:30.359Z,10.07
2022-08-19T08:38:02.276Z,6.22
2022-08-19T08:40:29.569Z,6.53
2022-08-19T08:43:32.732Z,7.95
2022-08-19T08:46:12.313Z,5.10
2022-08-19T08:49:01.989Z,6.78
2022-08-19T08:51:35.485Z,8.75
2022-08-19T08:54:07.858Z,6.30
2022-08-19T08:56:44.058Z,4.25
2022-08-19T08:59:24.585Z,3.40
2022-08-19T09:01:53.077Z,4.55
2022-08-19T09:04:20.492Z,11.77
2022-08-19T09:07:00.038Z,7.72
2022-08-19T09:09:43.005Z,6.75
2022-08-19T09:12:15.784Z,4.90
2022-08-19T09:14:52.511Z,8.32
2022-08-19T09:17:29.284Z,5.63
2022-08-19T09:20:09.133Z,4.90
2022-08-19T09:22:38.572Z,4.93
2022-08-19T09:25:08.127Z,7.60
2022-08-19T09:27:54.032Z,7.00
2022-08-19T09:30:27.516Z,5.10
2022-08-19T09:32:55.909Z,7.88
2022-08-19T09:35:28.341Z,7.88
2022-08-19T09:37:59.762Z,5.28
2022-08-19T09:40:35.442Z,6.00
2022-08-19T09:43:11.474Z,7.13
2022-08-19T09:45:41.277Z,5.28
2022-08-19T09:48:09.567Z,6.45
2022-08-19T09:50:52.055Z,10.35
2022-08-19T09:53:25.531Z,5.30
2022-08-19T09:55:55.863Z,4.40
2022-08-19T09:58:27.730Z,6.25
2022-08-19T10:01:00.793Z,7.47
2022-08-19T10:03:30.443Z,7.70
2022-08-19T10:06:00.215Z,5.78
2022-08-19T10:08:31.410Z,5.97
2022-08-19T10:10:59.335Z,7.30
2022-08-19T10:13:31.526Z,9.07
2022-08-19T10:16:07.328Z,7.95
2022-08-19T10:18:35.408Z,10.18
2022-08-19T10:21:09.721Z,4.13
2022-08-19T10:23:41.583Z,6.80
2022-08-19T10:26:08.924Z,5.75
2022-08-19T10:28:38.939Z,3.50
2022-08-19T10:31:09.552Z,8.50
2022-08-19T10:33:40.935Z,6.32
2022-08-19T10:36:23.665Z,9.65
2022-08-19T10:38:56.648Z,5.78
2022-08-19T10:41:27.958Z,7.68
2022-08-19T10:44:04.446Z,3.88
2022-08-19T10:46:33.745Z,6.75
2022-08-19T10:49:02.768Z,9.73
2022-08-19T10:51:48.895Z,6.82
2022-08-19T10:54:17.836Z,4.80
2022-08-19T10:56:58.543Z,8.68
2022-08-19T10:59:33.820Z,8.07
2022-08-19T11:02:06.197Z,7.65
2022-08-19T11:04:34.371Z,6.85
2022-08-19T11:07:04.531Z,4.50
2022-08-19T11:09:34.398Z,7.03
2022-08-19T11:12:02.822Z,9.05
2022-08-19T11:14:34.912Z,8.35
2022-08-19T11:17:03.941Z,10.65
2022-08-19T11:19:32.134Z,3.80
2022-08-19T11:22:00.781Z,10.20
2022-08-19T11:24:29.145Z,6.80
2022-08-19T11:27:03.748Z,5.15
2022-08-19T11:29:33.977Z,8.07
2022-08-19T11:32:04.900Z,5.07
2022-08-19T11:34:32.155Z,5.20
2022-08-19T11:37:00.548Z,6.03
2022-08-19T11:39:30.396Z,8.05
2022-08-19T11:41:59.627Z,6.10
2022-08-19T11:44:27.518Z,6.75
2022-08-19T11:46:54.751Z,6.78
2022-08-19T11:49:22.359Z,10.68
2022-08-19T11:51:51.816Z,7.90
2022-08-19T11:54:21.184Z,6.43
2022-08-19T11:56:50.155Z,6.47
2022-08-19T11:59:17.506Z,5.15
2022-08-19T12:01:44.833Z,11.73
2022-08-19T12:04:12.507Z,8.25
2022-08-19T12:06:41.459Z,4.90
2022-08-19T12:09:11.093Z,6.95
2022-08-19T12:11:39.526Z,8.43
2022-08-19T12:14:08.570Z,4.65
2022-08-19T12:16:42.722Z,14.68
2022-08-19T12:19:22.140Z,11.90
2022-08-19T12:21:50.955Z,8.88
2022-08-19T12:24:24.157Z,6.97
2022-08-19T12:26:53.163Z,5.43
2022-08-19T12:29:23.822Z,19.75
2022-08-19T12:31:52.446Z,9.35
2022-08-19T12:34:21.213Z,6.70
2022-08-19T12:36:50.584Z,10.27
2022-08-19T12:39:18.294Z,5.97
2022-08-19T12:41:51.654Z,7.55
2022-08-19T12:44:28.847Z,6.60
2022-08-19T12:46:58.137Z,10.18
2022-08-19T12:49:54.181Z,10.45
2022-08-19T12:52:17.061Z,8.63
2022-08-19T12:54:53.893Z,10.65
2022-08-19T12:57:31.671Z,9.30
2022-08-19T13:00:14.242Z,6.22
2022-08-19T13:02:45.278Z,6.45
2022-08-19T13:05:16.999Z,5.78
2022-08-19T13:07:47.139Z,7.25
2022-08-19T13:10:22.495Z,9.73
2022-08-19T13:12:51.744Z,7.70
2022-08-19T13:15:24.124Z,9.55
2022-08-19T13:17:54.955Z,6.43
2022-08-19T13:20:23.322Z,5.57
2022-08-19T13:22:50.995Z,7.95
2022-08-19T13:25:20.640Z,6.80
2022-08-19T13:27:49.063Z,12.90
2022-08-19T13:30:36.369Z,11.15
2022-08-19T13:33:15.495Z,15.32
2022-08-19T13:35:58.899Z,16.55
2022-08-19T13:38:26.520Z,15.02
2022-08-19T13:40:56.358Z,14.90
2022-08-19T13:43:26.935Z,19.83
2022-08-19T13:45:57.235Z,21.63
2022-08-19T13:48:27.509Z,21.10
2022-08-19T13:50:55.286Z,16.20
2022-08-19T13:53:23.132Z,25.73
2022-08-19T13:55:52.162Z,27.17
2022-08-19T13:58:19.508Z,24.25
2022-08-19T14:00:48.088Z,17.58
2022-08-19T14:03:15.334Z,18.23
2022-08-19T14:05:42.834Z,27.85
2022-08-19T14:08:10.394Z,18.13
2022-08-19T14:10:37.655Z,19.23
2022-08-19T14:13:07.648Z,23.17
2022-08-19T14:15:35.291Z,20.40
2022-08-19T14:18:05.653Z,26.88
2022-08-19T14:20:37.615Z,22.02
2022-08-19T14:23:08.201Z,15.75
2022-08-19T14:25:35.816Z,18.40
2022-08-19T14:28:05.575Z,24.60
2022-08-19T14:30:34.973Z,26.17
2022-08-19T14:33:03.725Z,22.42
2022-08-19T14:35:35.410Z,25.77
2022-08-19T14:38:05.970Z,23.20
2022-08-19T14:40:33.774Z,23.80
2022-08-19T14:43:05.566Z,22.25
2022-08-19T14:45:36.669Z,19.08
2022-08-19T14:48:05.828Z,18.58
2022-08-19T14:50:33.647Z,20.48
2022-08-19T14:53:12.732Z,20.27
2022-08-19T14:55:47.784Z,22.00
2022-08-19T14:58:29.312Z,18.10
2022-08-19T15:01:00.650Z,16.33
2022-08-19T15:03:29.587Z,24.27
2022-08-19T15:05:58.836Z,17.65
2022-08-19T15:08:27.127Z,16.77
2022-08-19T15:10:54.862Z,19.27
2022-08-19T15:13:22.794Z,16.15
2022-08-19T15:15:50.119Z,24.00
2022-08-19T15:18:17.447Z,25.00
2022-08-19T15:20:46.690Z,22.63
2022-08-19T15:23:15.891Z,21.25
2022-08-19T15:25:44.541Z,27.23
2022-08-19T15:28:12.452Z,24.38
2022-08-19T15:30:40.926Z,22.92
2022-08-19T15:33:08.699Z,17.45
2022-08-19T15:35:36.076Z,19.00
2022-08-19T15:38:03.391Z,13.55
2022-08-19T15:40:30.883Z,15.57
2022-08-19T15:42:58.905Z,13.88
2022-08-19T15:45:32.875Z,14.18
2022-08-19T15:48:05.298Z,11.63
2022-08-19T15:50:32.680Z,9.35
2022-08-19T15:53:05.910Z,14.90
2022-08-19T15:55:36.295Z,14.32
2022-08-19T15:58:29.937Z,13.48
2022-08-19T16:01:27.576Z,12.43
2022-08-19T16:04:15.802Z,16.55
2022-08-19T16:06:49.256Z,24.70
2022-08-19T16:09:18.169Z,9.63
2022-08-19T16:11:56.651Z,13.38
2022-08-19T16:14:25.404Z,12.95
2022-08-19T16:16:54.088Z,18.20
2022-08-19T16:19:21.358Z,13.10
2022-08-19T16:21:52.557Z,10.55
2022-08-19T16:24:22.614Z,17.52
2022-08-19T16:26:50.067Z,11.00
2022-08-19T16:29:30.244Z,10.68
2022-08-19T16:32:04.656Z,18.25
2022-08-19T16:34:32.465Z,14.77
2022-08-19T16:37:00.905Z,10.90
2022-08-19T16:39:28.163Z,14.82
2022-08-19T16:41:55.438Z,12.90
2022-08-19T16:44:23.004Z,9.88
2022-08-19T16:46:57.281Z,13.90
2022-08-19T16:49:52.141Z,12.65
2022-08-19T16:52:19.984Z,12.80
2022-08-19T16:54:48.427Z,8.07
2022-08-19T16:57:17.031Z,13.48
2022-08-19T16:59:48.477Z,14.45
2022-08-19T17:02:16.274Z,11.93
2022-08-19T17:04:43.488Z,13.98
2022-08-19T17:07:10.985Z,16.17
2022-08-19T17:09:39.080Z,7.88
2022-08-19T17:12:07.520Z,8.32
2022-08-19T17:14:36.270Z,12.25
2022-08-19T17:17:03.400Z,6.78
2022-08-19T17:19:30.641Z,10.00
2022-08-19T17:21:57.933Z,10.40
2022-08-19T17:24:25.278Z,13.20
2022-08-19T17:26:52.476Z,15.38
2022-08-19T17:29:19.691Z,7.13
2022-08-19T17:31:46.913Z,10.57
2022-08-19T17:34:14.170Z,14.20
2022-08-19T17:36:41.356Z,12.93
2022-08-19T17:39:08.725Z,7.88
2022-08-19T17:41:35.980Z,10.00
2022-08-19T17:44:04.304Z,7.97
2022-08-19T17:46:31.972Z,14.63
2022-08-19T17:48:59.253Z,14.90
2022-08-19T17:51:36.056Z,13.10
2022-08-19T17:54:05.641Z,13.77
2022-08-19T17:56:32.936Z,12.07
2022-08-19T17:59:01.682Z,9.60
2022-08-19T18:01:52.311Z,14.20
2022-08-19T18:04:18.909Z,10.60
2022-08-19T18:06:53.775Z,8.50
2022-08-19T18:09:27.238Z,9.73
2022-08-19T18:14:33.498Z,10.10
2022-08-19T18:17:09.773Z,9.63
2022-08-19T18:19:41.344Z,11.50
2022-08-19T18:24:47.793Z,9.98
2022-08-19T18:27:15.035Z,7.82
2022-08-19T18:29:42.668Z,13.75
2022-08-19T18:32:12.937Z,6.40
2022-08-19T18:34:43.659Z,14.27
2022-08-19T18:37:12.437Z,8.07
2022-08-19T18:39:58.226Z,8.77
2022-08-19T18:42:44.537Z,7.75
2022-08-19T18:45:30.901Z,11.93
2022-08-19T18:48:26.719Z,13.32
2022-08-19T18:50:58.378Z,7.40
2022-08-19T18:53:28.584Z,12.80
2022-08-19T18:55:56.295Z,12.10
2022-08-19T18:58:26.765Z,15.32
2022-08-19T19:00:57.036Z,7.60
2022-08-19T19:03:26.852Z,9.23
2022-08-19T19:05:54.655Z,13.60
2022-08-19T19:08:27.002Z,11.02
2022-08-19T19:10:56.175Z,9.63
2022-08-19T19:13:23.510Z,11.63
2022-08-19T19:15:50.674Z,8.38
2022-08-19T19:18:17.904Z,10.00
2022-08-19T19:20:45.088Z,15.07
2022-08-19T19:23:12.542Z,10.02
2022-08-19T19:25:49.961Z,10.23
2022-08-19T19:28:25.369Z,10.52
2022-08-19T19:30:54.612Z,6.90
2022-08-19T19:33:21.945Z,11.15
2022-08-19T19:35:49.362Z,8.15
2022-08-19T19:38:16.560Z,7.43
2022-08-19T19:40:46.874Z,11.45
2022-08-19T19:43:15.471Z,7.45
2022-08-19T19:45:43.141Z,5.15
2022-08-19T19:48:13.834Z,5.00
2022-08-19T19:50:41.281Z,10.77
2022-08-19T19:53:08.617Z,9.48
2022-08-19T19:55:36.833Z,7.30
2022-08-19T19:58:07.071Z,10.15
2022-08-19T20:00:35.035Z,4.97
2022-08-19T20:03:02.372Z,11.57
2022-08-19T20:05:29.530Z,7.18
2022-08-19T20:08:15.389Z,4.70
2022-08-19T20:10:43.622Z,7.68
2022-08-19T20:13:11.552Z,7.47
2022-08-19T20:15:46.038Z,4.70
2022-08-19T20:18:14.836Z,8.50
2022-08-19T20:20:43.509Z,4.80
2022-08-19T20:23:10.836Z,10.85
2022-08-19T20:25:38.843Z,6.05
2022-08-19T20:28:05.970Z,11.68
2022-08-19T20:30:33.756Z,6.32
2022-08-19T20:33:04.667Z,5.18
2022-08-19T20:35:31.891Z,10.65
2022-08-19T20:38:03.855Z,7.68
2022-08-19T20:40:32.394Z,9.35
2022-08-19T20:42:59.767Z,5.38
2022-08-19T20:45:33.312Z,6.05
2022-08-19T20:48:03.219Z,4.25
2022-08-19T20:50:32.736Z,7.78
2022-08-19T20:53:00.896Z,5.45
2022-08-19T20:55:30.440Z,7.85
2022-08-19T20:57:58.787Z,4.60
2022-08-19T21:00:26.316Z,6.60
2022-08-19T21:02:53.575Z,7.85
2022-08-19T21:05:20.852Z,4.18
2022-08-19T21:07:50.838Z,8.77
2022-08-19T21:10:18.111Z,8.77
2022-08-19T21:12:45.407Z,7.07
2022-08-19T21:15:12.838Z,14.05
2022-08-19T21:17:40.314Z,15.90
2022-08-19T21:20:09.704Z,4.05
2022-08-19T21:22:37.009Z,8.30
2022-08-19T21:25:05.601Z,8.10
2022-08-19T21:27:33.417Z,6.60
2022-08-19T21:30:00.709Z,8.65
2022-08-19T21:32:27.982Z,7.40
2022-08-19T21:34:55.346Z,10.25
2022-08-19T21:37:25.025Z,7.10
2022-08-19T21:39:53.378Z,5.82
2022-08-19T21:42:24.193Z,10.57
2022-08-19T21:44:51.888Z,7.03
2022-08-19T21:47:19.298Z,6.45
2022-08-19T21:49:46.579Z,7.43
2022-08-19T21:52:23.921Z,6.15
2022-08-19T21:54:54.671Z,7.10
2022-08-19T21:57:23.661Z,10.32
2022-08-19T21:59:53.868Z,6.88
2022-08-19T22:02:21.849Z,7.65
2022-08-19T22:04:51.574Z,10.43
2022-08-19T22:07:21.179Z,4.18
2022-08-19T22:09:50.227Z,8.02
2022-08-19T22:12:29.135Z,8.65
2022-08-19T22:14:57.544Z,8.85
2022-08-19T22:17:27.596Z,7.03
2022-08-19T22:19:56.385Z,9.65
2022-08-19T22:22:26.655Z,8.57
2022-08-19T22:25:00.030Z,6.50
2022-08-19T22:27:28.286Z,10.85
2022-08-19T22:29:55.633Z,6.18
2022-08-19T22:32:28.155Z,7.78
2022-08-19T22:34:58.777Z,8.57
2022-08-19T22:37:27.654Z,10.20
2022-08-19T22:39:55.409Z,8.88
2022-08-19T22:42:23.029Z,9.82
2022-08-19T22:44:50.311Z,18.33
2022-08-19T22:47:18.369Z,10.15
2022-08-19T22:49:45.585Z,12.32
2022-08-19T22:52:17.889Z,7.32
2022-08-19T22:54:53.950Z,10.25
2022-08-19T22:57:22.453Z,13.15
2022-08-19T22:59:52.254Z,15.57
2022-08-19T23:02:27.401Z,17.63
2022-08-19T23:04:55.129Z,18.50
2022-08-19T23:07:23.667Z,17.05
2022-08-19T23:09:51.388Z,20.98
2022-08-19T23:12:30.891Z,24.60
2022-08-19T23:15:07.856Z,30.08
2022-08-19T23:17:35.482Z,41.45
2022-08-19T23:20:05.003Z,35.67
2022-08-19T23:22:33.021Z,32.67
2022-08-19T23:25:08.470Z,38.85
2022-08-19T23:27:54.252Z,38.55
2022-08-19T23:30:27.869Z,50.65
2022-08-19T23:33:01.761Z,46.42
2022-08-19T23:35:34.698Z,44.83
2022-08-19T23:38:02.161Z,40.85
2022-08-19T23:40:29.967Z,37.42
2022-08-19T23:42:57.598Z,39.83
2022-08-19T23:45:27.542Z,36.50
2022-08-19T23:47:55.599Z,34.50
2022-08-19T23:50:25.102Z,36.72
2022-08-19T23:52:58.241Z,41.08
2022-08-19T23:55:30.339Z,37.33
2022-08-19T23:57:58.024Z,35.90
